12/05/05 - 01h:18mDenunciar

Northrop F-5E Tiger II

Mais uma imagem do belíssimo F-5E que ostenta pintura comemorativa pelos seus 30 anos de serviço. É interessante ressaltar uma característica deste caça: antes da decolagem, a triquilha (trem de pouso frontal, geralmente próximo e/ou abaixo do nariz da aeronave) pode ser opcionalmente estendida para aumentar o ângulo de ataque e, por conseqüência, promover uma decolagem com menor comprimento de pista.



Imagem de Rodrigo Bendoraytes - ALIDE, retirada do site Jetphotos.net.





METAR SBPB 120200Z 12006KT 9999 FEW017 27/25 Q1012=

Comentários (0)

Fotos postadas a mais de 15 dias não podem receber comentários.